Time;durP1;ratioP1;P1;durP2;ratioP2;P2;SDS_P1;SDS_P2;PMS_P1;PMS_P2;Temp;Humidity;BMP_temperature;BMP_pressure;BME280_temperature;BME280_humidity;BME280_pressure;Samples;Min_cycle;Max_cycle;Signal;HPM_P1;HPM_P2
2022/12/11 00:01:44;;;;;;;67.32;37.03;;;3.00;99.90;;;;;;5052439;28;20041;-73
2022/12/11 00:04:09;;;;;;;71.38;36.97;;;3.00;99.90;;;;;;5062558;28;20044;-72
2022/12/11 00:06:35;;;;;;;76.05;38.58;;;3.00;99.90;;;;;;5072869;28;20565;-72
2022/12/11 00:09:01;;;;;;;73.30;37.10;;;3.00;99.90;;;;;;5062657;28;20095;-72
2022/12/11 00:11:27;;;;;;;71.05;36.78;;;3.00;99.90;;;;;;5068704;28;20033;-72
2022/12/11 00:13:53;;;;;;;76.40;37.55;;;3.00;99.90;;;;;;5064582;28;20526;-72
2022/12/11 00:16:19;;;;;;;73.05;37.85;;;3.00;99.90;;;;;;5052826;28;20067;-73
2022/12/11 00:18:44;;;;;;;75.43;38.33;;;3.00;99.90;;;;;;5060806;28;20016;-73
2022/12/11 00:21:13;;;;;;;64.18;35.65;;;3.00;99.90;;;;;;5069776;28;20055;-71
2022/12/11 00:23:39;;;;;;;68.50;36.15;;;3.00;99.90;;;;;;5070889;28;20116;-71
2022/12/11 00:26:11;;;;;;;69.75;34.95;;;3.00;99.90;;;;;;5070201;28;20024;-72
2022/12/11 00:28:38;;;;;;;68.72;35.83;;;3.00;99.90;;;;;;5069880;28;20028;-71
2022/12/11 00:31:14;;;;;;;70.90;36.75;;;3.00;99.90;;;;;;5069798;28;20028;-72
2022/12/11 00:33:41;;;;;;;69.30;35.92;;;3.00;99.90;;;;;;5069484;28;20468;-72
2022/12/11 00:36:19;;;;;;;67.72;36.15;;;3.00;99.90;;;;;;5068919;28;20063;-72
2022/12/11 00:38:45;;;;;;;66.85;34.85;;;3.00;99.90;;;;;;5069333;28;20020;-72
2022/12/11 00:41:12;;;;;;;65.50;34.45;;;3.00;99.90;;;;;;5072152;28;20050;-71
2022/12/11 00:43:37;;;;;;;63.58;34.25;;;3.00;99.90;;;;;;5069505;28;20078;-72
2022/12/11 00:46:03;;;;;;;65.28;34.30;;;3.00;99.90;;;;;;5071654;28;20016;-72
2022/12/11 00:48:29;;;;;;;62.70;34.15;;;3.00;99.90;;;;;;5071391;28;20440;-72
2022/12/11 00:50:55;;;;;;;58.22;33.35;;;3.00;99.90;;;;;;5071306;28;20028;-72
2022/12/11 00:53:21;;;;;;;58.40;30.63;;;3.00;99.90;;;;;;5070060;28;20502;-71
2022/12/11 00:55:47;;;;;;;55.00;30.52;;;3.00;99.90;;;;;;5069479;28;20020;-72
2022/12/11 00:58:13;;;;;;;55.83;29.55;;;3.00;99.90;;;;;;5071644;28;20021;-72
2022/12/11 01:00:40;;;;;;;56.78;29.17;;;3.00;99.90;;;;;;5071062;28;20039;-72
2022/12/11 01:03:06;;;;;;;55.60;28.88;;;3.00;99.90;;;;;;5071764;28;20039;-72
2022/12/11 01:05:32;;;;;;;53.95;29.88;;;3.00;99.90;;;;;;5069489;28;20020;-72
2022/12/11 01:07:59;;;;;;;54.40;29.63;;;3.00;99.90;;;;;;5071159;28;20034;-72
2022/12/11 01:10:25;;;;;;;55.60;28.80;;;3.00;99.90;;;;;;5071566;28;20059;-72
2022/12/11 01:13:06;;;;;;;54.08;29.10;;;3.00;99.90;;;;;;5058034;28;20033;-72
2022/12/11 01:15:40;;;;;;;52.45;27.13;;;3.00;99.90;;;;;;5058977;28;20063;-72
2022/12/11 01:18:06;;;;;;;52.08;28.42;;;3.00;99.90;;;;;;5071320;28;20155;-72
2022/12/11 01:20:31;;;;;;;52.00;28.13;;;2.90;99.90;;;;;;5071465;28;20475;-72
2022/12/11 01:22:59;;;;;;;54.13;27.50;;;2.90;99.90;;;;;;5058602;28;20025;-72
2022/12/11 01:25:27;;;;;;;50.38;27.55;;;2.90;99.90;;;;;;5065193;28;20021;-71
2022/12/11 01:27:54;;;;;;;55.50;28.30;;;2.90;99.90;;;;;;5071263;28;20017;-71
2022/12/11 01:30:22;;;;;;;53.80;27.17;;;2.90;99.90;;;;;;5071549;28;20055;-71
2022/12/11 01:32:48;;;;;;;52.33;27.05;;;2.90;99.90;;;;;;5068862;28;20098;-71
2022/12/11 01:35:14;;;;;;;56.47;28.00;;;2.90;99.90;;;;;;5071374;28;20457;-73
2022/12/11 01:37:40;;;;;;;51.55;27.80;;;2.90;99.90;;;;;;5071016;28;20036;-71
2022/12/11 01:40:07;;;;;;;53.92;28.33;;;2.90;99.90;;;;;;5071519;28;20486;-71
2022/12/11 01:42:33;;;;;;;54.33;26.85;;;2.90;99.90;;;;;;5071046;28;20531;-71
2022/12/11 01:45:20;;;;;;;55.35;26.98;;;2.90;99.90;;;;;;5056902;28;20020;-71
2022/12/11 01:47:50;;;;;;;52.33;27.33;;;2.90;99.90;;;;;;5071004;28;20432;-72
2022/12/11 01:50:16;;;;;;;53.85;28.15;;;2.90;99.90;;;;;;5071209;28;20501;-72
2022/12/11 01:52:45;;;;;;;54.60;28.00;;;2.90;99.90;;;;;;5071064;28;20028;-72
2022/12/11 01:55:11;;;;;;;55.58;27.40;;;2.90;99.90;;;;;;5056465;28;20055;-72
2022/12/11 01:57:41;;;;;;;57.53;29.75;;;2.90;99.90;;;;;;5071234;28;20489;-71
2022/12/11 02:00:08;;;;;;;55.88;28.15;;;2.90;99.90;;;;;;5072782;28;20021;-72
2022/12/11 02:02:33;;;;;;;62.38;30.67;;;2.90;99.90;;;;;;5074249;28;20151;-71
2022/12/11 02:05:02;;;;;;;58.13;29.48;;;2.80;99.90;;;;;;5070969;28;20021;-72
2022/12/11 02:07:36;;;;;;;61.17;30.33;;;2.80;99.90;;;;;;5067983;28;20029;-72
2022/12/11 02:10:02;;;;;;;71.20;32.95;;;2.80;99.90;;;;;;5069437;28;20546;-72
2022/12/11 02:12:37;;;;;;;62.17;30.38;;;2.80;99.90;;;;;;5070466;28;20589;-72
2022/12/11 02:15:35;;;;;;;59.15;29.98;;;2.80;99.90;;;;;;5056166;28;20047;-72
2022/12/11 02:18:20;;;;;;;65.63;30.48;;;2.70;99.90;;;;;;5056942;28;20086;-72
2022/12/11 02:21:17;;;;;;;62.70;30.98;;;2.70;99.90;;;;;;5055104;28;20037;-72
2022/12/11 02:23:53;;;;;;;63.60;30.17;;;2.80;99.90;;;;;;5054428;28;20025;-72
2022/12/11 02:27:03;;;;;;;61.80;29.60;;;2.70;99.90;;;;;;5057946;28;20035;-72
2022/12/11 02:29:49;;;;;;;63.63;29.88;;;2.80;99.90;;;;;;5046787;28;20068;-72
2022/12/11 02:32:35;;;;;;;65.30;30.45;;;2.80;99.90;;;;;;5064238;28;20361;-72
2022/12/11 02:35:21;;;;;;;65.93;30.50;;;2.80;99.90;;;;;;5070588;28;20025;-72
2022/12/11 02:37:54;;;;;;;60.35;30.05;;;2.80;99.90;;;;;;5053536;28;20033;-72
2022/12/11 02:40:23;;;;;;;63.30;29.83;;;2.80;99.90;;;;;;5060444;28;20082;-72
2022/12/11 02:42:51;;;;;;;60.95;30.17;;;2.80;99.90;;;;;;5068480;28;20044;-72
2022/12/11 02:45:18;;;;;;;65.53;31.17;;;2.80;99.90;;;;;;5050484;28;20048;-72
2022/12/11 02:47:46;;;;;;;63.63;31.23;;;2.80;99.90;;;;;;5065070;28;20021;-72
2022/12/11 02:50:16;;;;;;;63.20;30.65;;;2.80;99.90;;;;;;5052459;28;20024;-72
2022/12/11 02:52:43;;;;;;;63.65;30.80;;;2.80;99.90;;;;;;5070602;28;20029;-72
2022/12/11 02:55:12;;;;;;;68.55;31.92;;;2.80;99.90;;;;;;5046816;28;20036;-72
2022/12/11 02:57:47;;;;;;;70.40;31.95;;;2.80;99.90;;;;;;5062576;28;20017;-72
2022/12/11 03:00:13;;;;;;;50.73;24.40;;;2.80;99.90;;;;;;5068318;28;20045;-72
2022/12/11 03:02:40;;;;;;;66.78;30.65;;;2.80;99.90;;;;;;5064987;28;20293;-73
2022/12/11 03:05:06;;;;;;;66.15;31.75;;;2.80;99.90;;;;;;5067836;28;20415;-72
2022/12/11 03:07:36;;;;;;;66.10;30.25;;;2.80;99.90;;;;;;5070186;28;20462;-72
2022/12/11 03:10:03;;;;;;;66.57;29.75;;;2.80;99.90;;;;;;5067708;28;20369;-72
2022/12/11 03:12:33;;;;;;;60.25;27.98;;;2.70;99.90;;;;;;5064640;28;20079;-72
2022/12/11 03:15:00;;;;;;;60.83;29.02;;;2.70;99.90;;;;;;5073651;28;20476;-72
2022/12/11 03:17:40;;;;;;;60.00;28.52;;;2.70;99.90;;;;;;5073640;28;20101;-72
2022/12/11 03:20:39;;;;;;;63.58;29.05;;;2.70;99.90;;;;;;5055097;28;20115;-72
2022/12/11 03:23:25;;;;;;;60.63;29.00;;;2.70;99.90;;;;;;5061922;28;20115;-72
2022/12/11 03:26:07;;;;;;;69.50;30.17;;;2.70;99.90;;;;;;5055171;28;20017;-72
2022/12/11 03:28:33;;;;;;;62.17;28.33;;;2.70;99.90;;;;;;5060362;28;20040;-72
2022/12/11 03:31:04;;;;;;;67.43;30.08;;;2.70;99.90;;;;;;5067025;28;20041;-72
2022/12/11 03:33:36;;;;;;;66.95;29.60;;;2.70;99.90;;;;;;5064015;28;20068;-72
2022/12/11 03:36:19;;;;;;;66.68;30.30;;;2.70;99.90;;;;;;5068343;28;20131;-72
2022/12/11 03:39:23;;;;;;;62.97;30.27;;;2.70;99.90;;;;;;5069667;28;20064;-72
2022/12/11 03:41:50;;;;;;;60.95;28.23;;;2.70;99.90;;;;;;4980450;28;20562;-72
2022/12/11 03:44:18;;;;;;;64.32;29.38;;;2.70;99.90;;;;;;4991330;28;20038;-72
2022/12/11 03:46:46;;;;;;;61.97;28.08;;;2.70;99.90;;;;;;4991049;28;20026;-72
2022/12/11 03:49:18;;;;;;;57.53;27.90;;;2.70;99.90;;;;;;4990053;28;20029;-72
2022/12/11 03:51:47;;;;;;;58.08;27.85;;;2.70;99.90;;;;;;4991007;28;20046;-72
2022/12/11 03:54:14;;;;;;;61.80;28.17;;;2.70;99.90;;;;;;4991012;28;20523;-72
2022/12/11 03:56:41;;;;;;;60.65;26.95;;;2.70;99.90;;;;;;4990847;28;20088;-72
2022/12/11 03:59:07;;;;;;;55.47;26.70;;;2.70;99.90;;;;;;4989688;28;20506;-72
2022/12/11 04:01:33;;;;;;;54.50;26.42;;;2.70;99.90;;;;;;4990778;28;20951;-72
2022/12/11 04:03:59;;;;;;;51.30;24.88;;;2.70;99.90;;;;;;4989564;28;20132;-72
2022/12/11 04:06:25;;;;;;;54.90;25.38;;;2.70;99.90;;;;;;4993953;28;20101;-72
2022/12/11 04:08:51;;;;;;;51.65;25.05;;;2.70;99.90;;;;;;4992553;28;20492;-72
2022/12/11 04:11:35;;;;;;;51.00;24.20;;;2.70;99.90;;;;;;4992379;28;20523;-72
2022/12/11 04:16:47;;;;;;;46.65;23.38;;;2.60;99.90;;;;;;5007297;28;20505;-72
2022/12/11 04:24:39;;;;;;;51.38;22.70;;;2.70;99.90;;;;;;5072793;28;20007;-72
2022/12/11 04:27:05;;;;;;;48.20;23.77;;;2.70;99.90;;;;;;5072083;28;20644;-72
2022/12/11 04:29:31;;;;;;;51.95;24.73;;;2.70;99.90;;;;;;5072554;28;20112;-72
2022/12/11 04:31:57;;;;;;;48.97;23.98;;;2.70;99.90;;;;;;5071546;28;20100;-72
2022/12/11 04:34:23;;;;;;;50.42;24.42;;;2.70;99.90;;;;;;5052472;28;20562;-72
2022/12/11 04:36:49;;;;;;;47.97;24.17;;;2.70;99.90;;;;;;5063693;28;20020;-72
2022/12/11 04:39:15;;;;;;;46.72;23.60;;;2.70;99.90;;;;;;5053513;28;20025;-72
2022/12/11 04:41:41;;;;;;;51.72;24.02;;;2.70;99.90;;;;;;5054900;28;20037;-72
2022/12/11 04:44:07;;;;;;;43.55;22.42;;;2.70;99.90;;;;;;5058229;28;20020;-72
2022/12/11 04:46:33;;;;;;;48.00;22.80;;;2.70;99.90;;;;;;5072215;28;20450;-72
2022/12/11 04:48:59;;;;;;;47.25;21.85;;;2.70;99.90;;;;;;5071915;28;20024;-72
2022/12/11 04:51:27;;;;;;;41.42;20.92;;;2.70;99.90;;;;;;5071737;28;20036;-72
2022/12/11 04:53:53;;;;;;;41.17;21.35;;;2.70;99.90;;;;;;5071920;28;20060;-72
2022/12/11 04:56:19;;;;;;;41.20;19.90;;;2.70;99.90;;;;;;5072099;28;20021;-72
2022/12/11 04:58:45;;;;;;;40.35;19.42;;;2.70;99.90;;;;;;5071828;28;20056;-72
2022/12/11 05:01:16;;;;;;;40.30;20.00;;;2.70;99.90;;;;;;5053672;28;20626;-72
2022/12/11 05:03:43;;;;;;;39.78;19.05;;;2.70;99.90;;;;;;5062636;28;20377;-72
2022/12/11 05:06:10;;;;;;;38.15;18.80;;;2.70;99.90;;;;;;5068943;28;20503;-72
2022/12/11 05:08:39;;;;;;;40.60;18.83;;;2.60;99.90;;;;;;5059250;28;20033;-72
2022/12/11 05:11:07;;;;;;;34.97;17.73;;;2.60;99.90;;;;;;5058047;28;20397;-72
2022/12/11 05:13:33;;;;;;;35.97;18.10;;;2.60;99.90;;;;;;5051912;28;20454;-72
2022/12/11 05:15:59;;;;;;;35.10;17.70;;;2.60;99.90;;;;;;5063764;28;20017;-72
2022/12/11 05:18:25;;;;;;;38.10;18.25;;;2.60;99.90;;;;;;5066765;28;20036;-72
2022/12/11 05:20:55;;;;;;;38.10;18.65;;;2.60;99.90;;;;;;5051582;28;20117;-72
2022/12/11 05:23:21;;;;;;;37.83;18.85;;;2.60;99.90;;;;;;5051535;28;20020;-72
2022/12/11 05:25:58;;;;;;;32.63;17.77;;;2.60;99.90;;;;;;5051622;28;20021;-72
2022/12/11 05:28:25;;;;;;;32.72;17.50;;;2.60;99.90;;;;;;5051499;28;20017;-72
2022/12/11 05:30:56;;;;;;;36.72;17.92;;;2.60;99.90;;;;;;5051173;28;20036;-72
2022/12/11 05:33:21;;;;;;;32.90;17.25;;;2.60;99.90;;;;;;5051293;28;20057;-72
2022/12/11 05:35:47;;;;;;;37.28;18.92;;;2.60;99.90;;;;;;5068137;28;20096;-72
2022/12/11 05:38:13;;;;;;;35.75;17.80;;;2.60;99.90;;;;;;5062362;28;20052;-72
2022/12/11 05:40:39;;;;;;;36.00;17.60;;;2.60;99.90;;;;;;5051227;28;20437;-72
2022/12/11 05:43:05;;;;;;;35.70;17.70;;;2.60;99.90;;;;;;5051591;28;20112;-72
2022/12/11 05:45:30;;;;;;;33.70;16.90;;;2.70;99.90;;;;;;5070993;28;20334;-72
2022/12/11 05:47:56;;;;;;;32.90;16.90;;;2.70;99.90;;;;;;5052904;28;20021;-72
2022/12/11 05:50:22;;;;;;;37.92;17.90;;;2.60;99.90;;;;;;5070928;28;20013;-72
2022/12/11 05:52:48;;;;;;;36.05;17.35;;;2.60;99.90;;;;;;5070948;28;20025;-72
2022/12/11 05:55:13;;;;;;;36.63;17.77;;;2.60;99.90;;;;;;5070525;28;20423;-72
2022/12/11 05:57:39;;;;;;;38.38;18.45;;;2.60;99.90;;;;;;5070617;28;20488;-72
2022/12/11 06:00:05;;;;;;;36.10;18.50;;;2.60;99.90;;;;;;5062109;28;20025;-72
2022/12/11 06:02:34;;;;;;;36.10;18.08;;;2.60;99.90;;;;;;5052183;28;20057;-72
2022/12/11 06:05:00;;;;;;;38.75;18.48;;;2.60;99.90;;;;;;5076599;28;20025;-72
2022/12/11 06:07:25;;;;;;;39.60;19.23;;;2.60;99.90;;;;;;5051004;28;20036;-72
2022/12/11 06:09:51;;;;;;;39.58;19.73;;;2.60;99.90;;;;;;5068097;28;20012;-72
2022/12/11 06:12:16;;;;;;;38.97;19.77;;;2.60;99.90;;;;;;5070222;28;20461;-72
2022/12/11 06:14:42;;;;;;;40.53;19.55;;;2.60;99.90;;;;;;5057074;28;20104;-72
2022/12/11 06:17:08;;;;;;;41.20;19.88;;;2.60;99.90;;;;;;5064322;28;20021;-72
2022/12/11 06:19:33;;;;;;;44.70;20.80;;;2.60;99.90;;;;;;5049694;28;20021;-72
2022/12/11 06:21:59;;;;;;;41.10;19.17;;;2.60;99.90;;;;;;5056500;28;20025;-72
2022/12/11 06:24:25;;;;;;;44.40;20.13;;;2.60;99.90;;;;;;5052841;28;20056;-72
2022/12/11 06:26:51;;;;;;;41.70;19.55;;;2.60;99.90;;;;;;5070408;28;20024;-72
2022/12/11 06:29:16;;;;;;;44.50;21.13;;;2.60;99.90;;;;;;5056046;28;20077;-72
2022/12/11 06:31:42;;;;;;;43.53;20.42;;;2.70;99.90;;;;;;5059219;28;20022;-72
2022/12/11 06:34:11;;;;;;;49.83;21.45;;;2.70;99.90;;;;;;5069598;28;20025;-72
2022/12/11 06:36:37;;;;;;;48.13;21.80;;;2.70;99.90;;;;;;5074575;28;20024;-72
2022/12/11 06:39:03;;;;;;;49.25;22.42;;;2.60;99.90;;;;;;5058695;28;20040;-72
2022/12/11 06:41:28;;;;;;;50.05;23.13;;;2.70;99.90;;;;;;5062208;28;20055;-72
2022/12/11 06:43:54;;;;;;;45.17;21.67;;;2.70;99.90;;;;;;5074488;28;20071;-72
2022/12/11 06:46:20;;;;;;;48.50;21.33;;;2.70;99.90;;;;;;5054901;28;20086;-72
2022/12/11 06:48:47;;;;;;;48.30;22.95;;;2.70;99.90;;;;;;5065377;28;20104;-72
2022/12/11 06:51:15;;;;;;;47.75;21.08;;;2.70;99.90;;;;;;5074126;28;20063;-72
2022/12/11 06:53:41;;;;;;;46.28;21.23;;;2.70;99.90;;;;;;5067135;28;20104;-72
2022/12/11 06:56:10;;;;;;;45.08;21.42;;;2.70;99.90;;;;;;5061516;28;20021;-72
2022/12/11 06:58:37;;;;;;;49.45;21.67;;;2.70;99.90;;;;;;5068739;28;20377;-72
2022/12/11 07:01:04;;;;;;;48.10;22.70;;;2.70;99.90;;;;;;5065321;28;20166;-72
2022/12/11 07:03:30;;;;;;;49.30;22.60;;;2.70;99.90;;;;;;5060790;28;20504;-72
2022/12/11 07:06:01;;;;;;;49.65;21.60;;;2.70;99.90;;;;;;5063660;28;20107;-72
2022/12/11 07:08:28;;;;;;;50.60;21.83;;;2.60;99.90;;;;;;5054674;28;20028;-72
2022/12/11 07:10:53;;;;;;;53.08;22.42;;;2.60;99.90;;;;;;5060418;28;20040;-72
2022/12/11 07:13:19;;;;;;;47.65;22.20;;;2.70;99.90;;;;;;5062517;28;20477;-72
2022/12/11 07:15:45;;;;;;;48.22;21.38;;;2.60;99.90;;;;;;5064104;28;20021;-72
2022/12/11 07:18:11;;;;;;;47.33;20.63;;;2.60;99.90;;;;;;5058496;28;20099;-72
2022/12/11 07:20:36;;;;;;;45.53;21.00;;;2.60;99.90;;;;;;5061057;28;20029;-72
2022/12/11 07:23:02;;;;;;;46.20;21.27;;;2.60;99.90;;;;;;5056248;28;20127;-72
2022/12/11 07:25:28;;;;;;;47.17;20.38;;;2.60;99.90;;;;;;5059809;28;20021;-71
2022/12/11 07:27:54;;;;;;;45.85;20.90;;;2.60;99.90;;;;;;5056228;28;20096;-72
2022/12/11 07:30:19;;;;;;;44.78;20.92;;;2.60;99.90;;;;;;5059396;28;20023;-72
2022/12/11 07:32:45;;;;;;;47.40;20.52;;;2.60;99.90;;;;;;5061408;28;20394;-72
2022/12/11 07:35:11;;;;;;;48.22;21.92;;;2.60;99.90;;;;;;5058321;28;20082;-72
2022/12/11 07:37:39;;;;;;;45.00;20.88;;;2.60;99.90;;;;;;5059860;28;20024;-72
2022/12/11 07:40:06;;;;;;;39.28;19.33;;;2.50;99.90;;;;;;5062669;28;20032;-72
2022/12/11 07:42:32;;;;;;;42.97;20.75;;;2.60;99.90;;;;;;5060631;28;20612;-72
2022/12/11 07:44:58;;;;;;;46.45;20.33;;;2.50;99.90;;;;;;5060750;28;20024;-72
2022/12/11 07:47:23;;;;;;;46.33;20.65;;;2.50;99.90;;;;;;5060816;28;20021;-72
2022/12/11 07:49:49;;;;;;;48.65;20.40;;;2.50;99.90;;;;;;5059482;28;20019;-72
2022/12/11 07:52:15;;;;;;;42.75;20.60;;;2.50;99.90;;;;;;5060334;28;20363;-72
2022/12/11 07:54:41;;;;;;;42.22;20.48;;;2.50;99.90;;;;;;5062664;28;20056;-72
2022/12/11 07:57:06;;;;;;;45.92;21.13;;;2.50;99.90;;;;;;5063174;28;20473;-72
2022/12/11 07:59:32;;;;;;;43.53;20.27;;;2.50;99.90;;;;;;5057590;28;20096;-71
2022/12/11 08:01:58;;;;;;;42.33;19.92;;;2.50;99.90;;;;;;5057829;28;20080;-72
2022/12/11 08:04:23;;;;;;;43.22;20.42;;;2.50;99.90;;;;;;5058986;28;20032;-71
2022/12/11 08:06:49;;;;;;;42.33;19.95;;;2.50;99.90;;;;;;5063637;28;20016;-71
2022/12/11 08:09:15;;;;;;;42.03;20.90;;;2.60;99.90;;;;;;5061302;28;20021;-71
2022/12/11 08:11:41;;;;;;;40.80;19.73;;;2.60;99.90;;;;;;5065361;28;20036;-71
2022/12/11 08:14:07;;;;;;;38.42;18.75;;;2.60;99.90;;;;;;5060390;28;20025;-71
2022/12/11 08:16:33;;;;;;;37.75;18.73;;;2.60;99.90;;;;;;5055177;28;21529;-71
2022/12/11 08:18:59;;;;;;;39.03;19.35;;;2.60;99.90;;;;;;5062945;28;20024;-73
2022/12/11 08:21:27;;;;;;;36.65;18.42;;;2.60;99.90;;;;;;5060287;28;20040;-72
2022/12/11 08:23:53;;;;;;;39.60;18.98;;;2.60;99.90;;;;;;5063582;28;20024;-72
2022/12/11 08:26:23;;;;;;;39.72;18.95;;;2.70;99.90;;;;;;5062572;28;20044;-71
2022/12/11 08:28:49;;;;;;;37.85;19.70;;;2.60;99.90;;;;;;5062328;28;20025;-71
2022/12/11 08:31:16;;;;;;;37.13;19.27;;;2.60;99.90;;;;;;5057118;28;20032;-71
2022/12/11 08:33:41;;;;;;;39.20;18.50;;;2.70;99.90;;;;;;5059518;28;20135;-72
2022/12/11 08:36:10;;;;;;;35.90;18.75;;;2.70;99.90;;;;;;5059852;28;20100;-72
2022/12/11 08:38:37;;;;;;;37.10;19.25;;;2.70;99.90;;;;;;5056999;28;20131;-72
2022/12/11 08:41:13;;;;;;;37.78;19.40;;;2.70;99.90;;;;;;5063324;28;20092;-72
2022/12/11 08:43:39;;;;;;;40.17;19.58;;;2.70;99.90;;;;;;5063638;28;20024;-72
2022/12/11 08:46:06;;;;;;;42.00;20.27;;;2.70;99.90;;;;;;5063107;28;20066;-72
2022/12/11 08:48:35;;;;;;;41.40;19.48;;;2.70;99.90;;;;;;5063085;28;20519;-73
2022/12/11 08:51:04;;;;;;;41.35;19.60;;;2.80;99.90;;;;;;5067379;28;20025;-72
2022/12/11 08:53:31;;;;;;;41.83;19.00;;;2.80;99.90;;;;;;5061877;28;20035;-72
2022/12/11 08:56:05;;;;;;;36.92;18.55;;;2.80;99.90;;;;;;5054339;28;20109;-71
2022/12/11 08:58:31;;;;;;;35.95;18.40;;;2.80;99.90;;;;;;5063836;28;20028;-72
2022/12/11 09:00:57;;;;;;;39.97;19.45;;;2.80;99.90;;;;;;5075414;28;20024;-72
2022/12/11 09:03:24;;;;;;;41.40;20.73;;;2.80;99.90;;;;;;5081461;28;20355;-72
2022/12/11 09:05:50;;;;;;;44.83;21.27;;;2.80;99.90;;;;;;5081291;28;20024;-72
2022/12/11 09:08:16;;;;;;;47.65;22.23;;;2.80;99.90;;;;;;5080294;28;20423;-72
2022/12/11 09:10:41;;;;;;;50.40;23.00;;;2.90;99.90;;;;;;5067393;28;20032;-72
2022/12/11 09:13:07;;;;;;;50.28;24.23;;;2.90;99.90;;;;;;5067239;28;20028;-72
2022/12/11 09:15:33;;;;;;;48.55;22.55;;;2.90;99.90;;;;;;5073373;28;20448;-72
2022/12/11 09:17:58;;;;;;;51.53;23.02;;;2.90;99.90;;;;;;5063166;28;20444;-72
2022/12/11 09:20:24;;;;;;;52.50;23.55;;;3.00;99.90;;;;;;5057806;28;20024;-72
2022/12/11 09:22:50;;;;;;;49.03;22.60;;;2.90;99.90;;;;;;5080918;28;20024;-72
2022/12/11 09:25:16;;;;;;;49.90;22.92;;;3.00;99.90;;;;;;5071149;28;20485;-72
2022/12/11 09:27:41;;;;;;;50.75;23.45;;;2.90;99.90;;;;;;5061383;28;20040;-72
2022/12/11 09:30:07;;;;;;;48.47;23.23;;;3.00;99.90;;;;;;5071101;28;20379;-72
2022/12/11 09:32:33;;;;;;;50.35;23.15;;;3.00;99.90;;;;;;5087431;28;20477;-72
2022/12/11 09:34:59;;;;;;;51.05;23.73;;;3.00;99.90;;;;;;5082783;28;20108;-72
2022/12/11 09:37:25;;;;;;;54.42;25.02;;;3.00;99.90;;;;;;5078691;28;20021;-72
2022/12/11 09:39:50;;;;;;;55.25;24.05;;;3.00;99.90;;;;;;5077481;28;20480;-72
2022/12/11 09:42:27;;;;;;;55.17;25.13;;;3.00;99.90;;;;;;5080812;28;20042;-72
2022/12/11 09:45:01;;;;;;;57.33;25.75;;;3.00;99.90;;;;;;5081602;28;20120;-72
2022/12/11 09:47:35;;;;;;;53.25;24.05;;;3.00;99.90;;;;;;5077780;28;20507;-72
2022/12/11 09:50:18;;;;;;;55.83;24.88;;;3.00;99.90;;;;;;5083247;28;20028;-72
2022/12/11 09:53:05;;;;;;;55.25;24.55;;;3.00;99.90;;;;;;5078041;28;20020;-72
2022/12/11 09:55:52;;;;;;;56.83;25.48;;;3.10;99.90;;;;;;5068672;28;20124;-72
2022/12/11 09:58:42;;;;;;;49.80;24.08;;;3.10;99.90;;;;;;5079237;28;20032;-72
2022/12/11 10:01:18;;;;;;;53.42;24.05;;;3.10;99.90;;;;;;5072934;28;20045;-72
2022/12/11 10:03:55;;;;;;;57.85;26.67;;;3.10;99.90;;;;;;5074950;28;20020;-72
2022/12/11 10:06:29;;;;;;;56.67;25.15;;;3.10;99.90;;;;;;5083454;28;20081;-72
2022/12/11 10:09:10;;;;;;;55.42;24.95;;;3.10;99.90;;;;;;5075672;28;20032;-72
2022/12/11 10:11:51;;;;;;;52.25;24.30;;;3.10;99.90;;;;;;5087404;28;20032;-72
2022/12/11 10:14:42;;;;;;;59.05;26.13;;;3.20;99.90;;;;;;5082112;28;20024;-72
2022/12/11 10:17:13;;;;;;;57.22;27.15;;;3.20;99.90;;;;;;5082608;28;20085;-72
2022/12/11 10:19:40;;;;;;;55.50;26.60;;;3.20;99.90;;;;;;5087061;28;20012;-71
2022/12/11 10:22:21;;;;;;;57.38;26.73;;;3.20;99.90;;;;;;5091940;28;20404;-71
2022/12/11 10:25:01;;;;;;;59.35;27.63;;;3.20;99.90;;;;;;5084575;28;20471;-71
2022/12/11 10:27:34;;;;;;;60.95;26.50;;;3.20;99.90;;;;;;5089692;28;20117;-71
2022/12/11 10:30:18;;;;;;;57.28;27.50;;;3.20;99.90;;;;;;5092634;28;20115;-71
2022/12/11 10:33:15;;;;;;;54.70;26.35;;;3.20;99.90;;;;;;5066493;28;20243;-71
2022/12/11 10:35:54;;;;;;;57.35;27.05;;;3.20;99.90;;;;;;5073527;28;20047;-71
2022/12/11 10:38:41;;;;;;;54.92;26.33;;;3.30;99.90;;;;;;5084851;28;20020;-72
2022/12/11 10:41:17;;;;;;;60.72;26.92;;;3.30;99.90;;;;;;5088180;28;20066;-72
2022/12/11 10:43:45;;;;;;;58.90;26.58;;;3.30;99.90;;;;;;5087961;28;20556;-72
2022/12/11 10:46:27;;;;;;;57.40;26.55;;;3.30;99.90;;;;;;5059667;28;20454;-72
2022/12/11 10:48:58;;;;;;;53.70;26.13;;;3.30;99.90;;;;;;5074514;28;20067;-72
2022/12/11 10:51:30;;;;;;;56.40;26.52;;;3.30;99.90;;;;;;5085741;28;20051;-72
2022/12/11 10:54:05;;;;;;;55.10;25.60;;;3.30;99.90;;;;;;5078761;28;20021;-72
2022/12/11 10:56:31;;;;;;;;;;;3.40;99.90;;;;;;5070965;28;20029;-72
2022/12/11 10:58:59;;;;;;;53.53;25.67;;;3.40;99.90;;;;;;5066052;28;19916;-72
2022/12/11 11:01:28;;;;;;;53.63;25.60;;;3.40;99.90;;;;;;5063092;28;20127;-72
2022/12/11 11:04:12;;;;;;;51.25;24.27;;;3.50;99.90;;;;;;5067949;28;20484;-73
2022/12/11 11:06:38;;;;;;;53.83;24.17;;;3.50;99.90;;;;;;5067924;28;20494;-72
2022/12/11 11:09:29;;;;;;;50.17;24.05;;;3.50;99.90;;;;;;5065974;28;20492;-72
2022/12/11 11:11:54;;;;;;;51.70;24.15;;;3.50;99.90;;;;;;5060179;28;20709;-72
2022/12/11 11:14:24;;;;;;;55.63;25.35;;;3.60;99.90;;;;;;5076648;28;20104;-71
2022/12/11 11:16:53;;;;;;;50.05;24.63;;;3.60;99.90;;;;;;5073555;28;20012;-71
2022/12/11 11:19:24;;;;;;;53.85;26.30;;;3.60;99.90;;;;;;5064602;28;20036;-72
2022/12/11 11:22:03;;;;;;;54.70;25.58;;;3.60;99.90;;;;;;5079194;28;20024;-73
2022/12/11 11:24:35;;;;;;;53.80;25.67;;;3.60;99.90;;;;;;5088641;28;20032;-72
2022/12/11 11:27:01;;;;;;;52.85;25.63;;;3.60;99.90;;;;;;5082640;28;20028;-71
2022/12/11 11:29:33;;;;;;;58.30;27.60;;;3.60;99.90;;;;;;5083874;28;20485;-72
2022/12/11 11:32:19;;;;;;;58.95;27.42;;;3.60;99.90;;;;;;5080821;28;20493;-72
2022/12/11 11:34:44;;;;;;;57.85;26.65;;;3.70;99.90;;;;;;5069185;28;20390;-72
2022/12/11 11:37:30;;;;;;;57.33;26.92;;;3.60;99.90;;;;;;5071863;28;20016;-72
2022/12/11 11:40:21;;;;;;;55.15;24.75;;;3.60;99.90;;;;;;5079877;28;20024;-72
2022/12/11 11:43:07;;;;;;;55.45;25.90;;;3.60;99.90;;;;;;5068745;28;20071;-72
2022/12/11 11:45:40;;;;;;;54.03;25.25;;;3.60;99.90;;;;;;5055056;28;20040;-72
2022/12/11 11:48:26;;;;;;;52.40;25.55;;;3.60;99.90;;;;;;5077583;28;20032;-72
2022/12/11 11:50:53;;;;;;;54.22;25.17;;;3.60;99.90;;;;;;5069000;28;20025;-73
2022/12/11 11:53:29;;;;;;;55.25;26.23;;;3.60;99.90;;;;;;5061781;28;20051;-73
2022/12/11 11:56:09;;;;;;;59.15;27.27;;;3.60;99.90;;;;;;5063388;28;20031;-73
2022/12/11 11:59:08;;;;;;;56.72;26.90;;;3.70;99.90;;;;;;5087372;28;20077;-72
2022/12/11 12:01:33;;;;;;;54.67;25.27;;;3.70;99.90;;;;;;5061115;28;20072;-72
2022/12/11 12:04:02;;;;;;;57.38;25.67;;;3.70;99.90;;;;;;5068278;28;20378;-72
2022/12/11 12:06:49;;;;;;;58.03;25.83;;;3.70;99.90;;;;;;5077906;28;20012;-72
2022/12/11 12:09:19;;;;;;;56.83;25.23;;;3.70;99.90;;;;;;5084355;28;20027;-72
2022/12/11 12:12:06;;;;;;;52.53;25.48;;;3.70;99.90;;;;;;5081738;28;20491;-72
2022/12/11 12:14:51;;;;;;;57.45;24.38;;;3.70;99.90;;;;;;5080533;28;20124;-73
2022/12/11 12:17:23;;;;;;;;;;;3.70;99.90;;;;;;5081901;28;20524;-72
2022/12/11 12:20:09;;;;;;;53.28;23.05;;;3.70;99.90;;;;;;5047972;28;19912;-72
2022/12/11 12:22:47;;;;;;;53.45;24.13;;;3.60;99.90;;;;;;5088169;28;20491;-72
2022/12/11 12:25:35;;;;;;;52.80;24.63;;;3.60;99.90;;;;;;5079703;28;20044;-72
2022/12/11 12:28:31;;;;;;;57.65;25.48;;;3.60;99.90;;;;;;5045857;28;20510;-72
2022/12/11 12:31:07;;;;;;;60.85;27.25;;;3.60;99.90;;;;;;5060701;28;20027;-72
2022/12/11 12:33:37;;;;;;;59.13;26.58;;;3.60;99.90;;;;;;5062123;28;20136;-72
2022/12/11 12:36:40;;;;;;;58.58;25.98;;;3.60;99.90;;;;;;5077623;28;20027;-73
2022/12/11 12:39:06;;;;;;;57.72;24.27;;;3.70;99.90;;;;;;5018639;28;20456;-73
2022/12/11 12:41:42;;;;;;;55.67;24.40;;;3.60;99.90;;;;;;5018514;28;20038;-73
2022/12/11 12:44:17;;;;;;;45.08;22.30;;;3.70;99.90;;;;;;5019571;28;20071;-73
2022/12/11 12:46:57;;;;;;;49.08;22.63;;;3.70;99.90;;;;;;5012544;28;20084;-73
2022/12/11 12:49:33;;;;;;;50.03;23.48;;;3.60;99.90;;;;;;5010131;28;20410;-73
2022/12/11 12:52:00;;;;;;;50.30;24.35;;;3.60;99.90;;;;;;5009842;28;20382;-73
2022/12/11 12:54:27;;;;;;;48.58;23.50;;;3.60;99.90;;;;;;5011894;28;20128;-73
2022/12/11 12:56:54;;;;;;;53.45;25.42;;;3.60;99.90;;;;;;5010133;28;20042;-73
2022/12/11 12:59:25;;;;;;;55.10;25.10;;;3.60;99.90;;;;;;4996021;28;20037;-72
2022/12/11 13:02:02;;;;;;;52.22;25.70;;;3.50;99.90;;;;;;5018120;28;20060;-73
2022/12/11 13:04:33;;;;;;;57.97;26.15;;;3.50;99.90;;;;;;5010268;28;20038;-73